Time;durP1;ratioP1;P1;durP2;ratioP2;P2;SDS_P1;SDS_P2;PMS_P1;PMS_P2;Temp;Humidity;BMP_temperature;BMP_pressure;BME280_temperature;BME280_humidity;BME280_pressure;Samples;Min_cycle;Max_cycle;Signal;HPM_P1;HPM_P2
2021/10/13 00:01:00;;;;;;;8.87;0.87;;;9.30;94.20;;;;;;5033955;28;20509;-79
2021/10/13 00:03:26;;;;;;;4.53;1.20;;;9.40;94.10;;;;;;5034714;28;20101;-79
2021/10/13 00:05:51;;;;;;;5.53;0.80;;;9.40;94.10;;;;;;5033653;28;20030;-79
2021/10/13 00:08:18;;;;;;;8.67;0.93;;;9.40;94.10;;;;;;5033446;28;20040;-79
2021/10/13 00:10:44;;;;;;;4.80;0.90;;;9.50;94.10;;;;;;5017146;28;20028;-79
2021/10/13 00:13:10;;;;;;;8.07;1.10;;;9.50;94.10;;;;;;5033581;28;20073;-79
2021/10/13 00:15:37;;;;;;;5.13;1.10;;;9.50;94.20;;;;;;5017179;28;20029;-80
2021/10/13 00:18:03;;;;;;;5.13;0.93;;;9.50;94.20;;;;;;5016951;28;20022;-80
2021/10/13 00:20:28;;;;;;;6.47;1.13;;;9.50;94.20;;;;;;5034698;28;20026;-80
2021/10/13 00:22:54;;;;;;;5.80;1.00;;;9.60;94.20;;;;;;5032726;28;20748;-80
2021/10/13 00:25:19;;;;;;;6.53;1.10;;;9.50;94.20;;;;;;5016983;28;20026;-80
2021/10/13 00:27:45;;;;;;;11.27;1.20;;;9.40;94.10;;;;;;5034363;28;20036;-80
2021/10/13 00:30:11;;;;;;;4.03;0.80;;;9.40;94.10;;;;;;5034661;28;20031;-80
2021/10/13 00:32:36;;;;;;;7.13;1.10;;;9.40;94.20;;;;;;5016357;28;20037;-80
2021/10/13 00:35:02;;;;;;;7.30;1.07;;;9.30;94.00;;;;;;5033010;28;20474;-79
2021/10/13 00:37:28;;;;;;;7.63;1.13;;;9.30;94.00;;;;;;5033109;28;20025;-79
2021/10/13 00:39:53;;;;;;;5.00;1.07;;;9.20;94.00;;;;;;5016755;28;20037;-80
2021/10/13 00:42:19;;;;;;;12.07;1.50;;;9.20;94.00;;;;;;5033025;28;20079;-80
2021/10/13 00:44:45;;;;;;;3.13;0.87;;;9.20;94.00;;;;;;5033058;28;20084;-80
2021/10/13 00:47:10;;;;;;;8.00;1.10;;;9.10;94.00;;;;;;5032929;28;20390;-79
2021/10/13 00:49:36;;;;;;;9.27;1.30;;;9.10;94.00;;;;;;5016363;28;20061;-80
2021/10/13 00:52:03;;;;;;;10.77;1.33;;;9.10;94.10;;;;;;5032477;28;20037;-79
2021/10/13 00:54:30;;;;;;;8.40;1.30;;;9.00;94.20;;;;;;5033949;28;20060;-79
2021/10/13 00:56:55;;;;;;;10.93;1.00;;;9.00;94.30;;;;;;5032838;28;20057;-78
2021/10/13 00:59:21;;;;;;;6.73;1.00;;;9.00;94.40;;;;;;5033668;28;20085;-78
2021/10/13 01:02:09;;;;;;;8.67;1.33;;;9.00;94.50;;;;;;5016144;28;20100;-79
2021/10/13 01:04:56;;;;;;;5.17;0.90;;;9.10;94.60;;;;;;5033996;28;20030;-79
2021/10/13 01:07:28;;;;;;;3.97;1.23;;;9.10;94.70;;;;;;5032289;28;20032;-79
2021/10/13 01:10:11;;;;;;;6.30;1.17;;;9.10;94.70;;;;;;5032244;28;20029;-80
2021/10/13 01:12:54;;;;;;;7.10;1.57;;;9.10;94.70;;;;;;5032509;28;20428;-79
2021/10/13 01:15:26;;;;;;;4.65;1.30;;;9.10;94.70;;;;;;5033592;28;20030;-79
2021/10/13 01:18:24;;;;;;;4.80;1.33;;;9.10;94.70;;;;;;5033374;28;20048;-79
2021/10/13 01:21:13;;;;;;;6.23;1.30;;;9.10;94.80;;;;;;5032160;28;20116;-79
2021/10/13 01:23:57;;;;;;;7.43;1.40;;;9.10;94.80;;;;;;5032361;28;20115;-79
2021/10/13 01:26:56;;;;;;;8.32;1.52;;;9.10;94.80;;;;;;5032122;28;20038;-80
2021/10/13 01:29:24;;;;;;;5.63;1.17;;;9.20;94.90;;;;;;5033197;28;20056;-80
2021/10/13 01:31:55;;;;;;;5.77;1.60;;;9.20;94.90;;;;;;5033556;28;20025;-80
2021/10/13 01:34:27;;;;;;;10.33;1.37;;;9.20;95.00;;;;;;5032516;28;20037;-80
2021/10/13 01:37:03;;;;;;;7.27;1.70;;;9.20;95.00;;;;;;5033117;28;20374;-80
2021/10/13 01:39:30;;;;;;;7.57;1.33;;;9.20;95.00;;;;;;5031956;28;20021;-80
2021/10/13 01:41:59;;;;;;;3.33;1.20;;;9.20;95.00;;;;;;5031705;28;20394;-80
2021/10/13 01:44:30;;;;;;;6.33;1.43;;;9.30;95.00;;;;;;5033061;28;20474;-80
2021/10/13 01:46:58;;;;;;;8.53;1.40;;;9.20;94.90;;;;;;5033072;28;20022;-80
2021/10/13 01:49:23;;;;;;;9.03;1.93;;;9.20;94.90;;;;;;5031965;28;20029;-80
2021/10/13 01:51:50;;;;;;;6.57;1.20;;;9.20;94.90;;;;;;5033546;28;20378;-79
2021/10/13 01:54:16;;;;;;;5.90;1.40;;;9.20;94.90;;;;;;5015126;28;20052;-79
2021/10/13 01:56:43;;;;;;;9.40;2.00;;;9.10;94.90;;;;;;5015225;28;20420;-79
2021/10/13 01:59:16;;;;;;;7.30;1.20;;;9.10;94.90;;;;;;5032872;28;20052;-79
2021/10/13 02:01:44;;;;;;;4.73;1.23;;;9.10;94.90;;;;;;5031870;28;20030;-78
2021/10/13 02:04:11;;;;;;;3.50;1.30;;;9.10;94.80;;;;;;5031083;28;20029;-79
2021/10/13 02:06:41;;;;;;;9.37;2.17;;;9.10;94.80;;;;;;5031375;28;20492;-78
2021/10/13 02:09:08;;;;;;;7.07;1.50;;;9.10;94.90;;;;;;5031318;28;20083;-79
2021/10/13 02:11:35;;;;;;;7.53;1.73;;;9.00;94.80;;;;;;5032948;28;20026;-79
2021/10/13 02:14:09;;;;;;;9.03;1.43;;;9.00;94.90;;;;;;5031545;28;20041;-79
2021/10/13 02:16:37;;;;;;;9.02;1.67;;;9.00;95.00;;;;;;5031458;28;20021;-79
2021/10/13 02:19:05;;;;;;;7.53;1.30;;;9.00;95.00;;;;;;5015241;28;20021;-79
2021/10/13 02:21:35;;;;;;;9.10;2.03;;;9.00;95.00;;;;;;5031924;28;20068;-79
2021/10/13 02:24:02;;;;;;;5.83;1.23;;;9.00;95.10;;;;;;5033155;28;20080;-78
2021/10/13 02:26:45;;;;;;;10.37;2.03;;;9.00;95.10;;;;;;5035247;28;20461;-79
2021/10/13 02:29:18;;;;;;;8.70;1.30;;;8.90;95.20;;;;;;5035256;28;20377;-79
2021/10/13 02:31:44;;;;;;;6.43;1.60;;;9.00;95.40;;;;;;5036462;28;20022;-79
2021/10/13 02:34:11;;;;;;;4.83;1.33;;;8.90;95.40;;;;;;5034606;28;20041;-79
2021/10/13 02:36:37;;;;;;;4.63;1.60;;;8.90;95.40;;;;;;5036367;28;20026;-80
2021/10/13 02:39:05;;;;;;;6.87;1.90;;;8.80;95.40;;;;;;5036108;28;20025;-79
2021/10/13 02:41:32;;;;;;;11.30;1.70;;;8.90;95.60;;;;;;5034913;28;20026;-79
2021/10/13 02:43:58;;;;;;;6.70;1.23;;;8.90;95.60;;;;;;5034809;28;20018;-79
2021/10/13 02:46:31;;;;;;;8.00;1.20;;;8.90;95.70;;;;;;5018541;28;20026;-78
2021/10/13 02:49:20;;;;;;;6.25;1.50;;;9.00;95.80;;;;;;5036383;28;20025;-79
2021/10/13 02:51:59;;;;;;;5.37;1.40;;;9.00;95.80;;;;;;5035511;28;20034;-79
2021/10/13 02:54:32;;;;;;;8.47;1.73;;;9.00;95.80;;;;;;5036161;28;20043;-79
2021/10/13 02:57:01;;;;;;;6.90;1.73;;;9.00;95.80;;;;;;5034379;28;20090;-79
2021/10/13 02:59:44;;;;;;;5.37;1.73;;;9.10;95.90;;;;;;5035815;28;20052;-78
2021/10/13 03:02:23;;;;;;;7.10;1.20;;;9.10;95.90;;;;;;5034563;28;20026;-79
2021/10/13 03:04:52;;;;;;;8.10;1.70;;;9.10;95.90;;;;;;5034527;28;20021;-79
2021/10/13 03:07:23;;;;;;;8.43;1.77;;;9.20;95.90;;;;;;5036079;28;20029;-78
2021/10/13 03:09:55;;;;;;;6.33;1.50;;;9.20;95.90;;;;;;5036060;28;20022;-79
2021/10/13 03:12:23;;;;;;;6.13;1.90;;;9.20;95.90;;;;;;5036060;28;20453;-79
2021/10/13 03:14:51;;;;;;;9.30;1.57;;;9.20;95.90;;;;;;5034551;28;20025;-79
2021/10/13 03:17:18;;;;;;;5.00;1.37;;;9.20;95.90;;;;;;5035569;28;20041;-79
2021/10/13 03:19:46;;;;;;;3.67;1.20;;;9.20;95.90;;;;;;5034024;28;20068;-79
2021/10/13 03:22:13;;;;;;;7.80;1.43;;;9.20;96.00;;;;;;5035590;28;20063;-80
2021/10/13 03:24:40;;;;;;;8.70;1.87;;;9.30;96.00;;;;;;5035619;28;20033;-79
2021/10/13 03:27:06;;;;;;;5.97;1.50;;;9.30;96.00;;;;;;5034219;28;20033;-79
2021/10/13 03:29:32;;;;;;;5.07;1.40;;;9.30;96.00;;;;;;5017949;28;20022;-79
2021/10/13 03:31:57;;;;;;;6.67;1.47;;;9.30;96.00;;;;;;5035459;28;20087;-79
2021/10/13 03:34:23;;;;;;;8.63;1.93;;;9.30;96.30;;;;;;5033391;28;20513;-79
2021/10/13 03:36:50;;;;;;;5.53;1.40;;;9.30;96.00;;;;;;5034396;28;20037;-78
2021/10/13 03:39:16;;;;;;;7.70;1.40;;;9.30;96.00;;;;;;5035219;28;20057;-79
2021/10/13 03:41:43;;;;;;;10.20;1.33;;;9.30;96.00;;;;;;5035412;28;20071;-80
2021/10/13 03:44:09;;;;;;;10.73;1.23;;;9.40;96.10;;;;;;5035492;28;20060;-79
2021/10/13 03:46:37;;;;;;;6.27;1.43;;;9.40;96.10;;;;;;5033977;28;20049;-79
2021/10/13 03:49:03;;;;;;;5.67;1.07;;;9.40;96.10;;;;;;5017711;28;20036;-79
2021/10/13 03:51:29;;;;;;;7.73;1.57;;;9.50;96.10;;;;;;5017483;28;20461;-79
2021/10/13 03:53:55;;;;;;;10.40;1.20;;;9.50;96.00;;;;;;5017389;28;20068;-79
2021/10/13 03:56:21;;;;;;;5.50;1.27;;;9.50;96.00;;;;;;5034230;28;20062;-79
2021/10/13 03:58:47;;;;;;;5.87;1.23;;;9.50;96.00;;;;;;5033344;28;20157;-79
2021/10/13 04:01:13;;;;;;;5.07;1.53;;;9.50;96.00;;;;;;5034928;28;20079;-79
2021/10/13 04:03:40;;;;;;;7.60;1.37;;;9.60;96.10;;;;;;5034214;28;20037;-79
2021/10/13 04:06:08;;;;;;;6.83;1.37;;;9.60;96.10;;;;;;5035190;28;20116;-79
2021/10/13 04:08:34;;;;;;;5.53;1.10;;;9.60;96.10;;;;;;5034702;28;20021;-78
2021/10/13 04:10:59;;;;;;;6.33;1.40;;;9.70;96.10;;;;;;5016947;28;20362;-79
2021/10/13 04:13:25;;;;;;;8.37;1.63;;;9.70;96.00;;;;;;5034603;28;20132;-79
2021/10/13 04:15:51;;;;;;;6.23;1.50;;;9.70;96.00;;;;;;5033031;28;20458;-79
2021/10/13 04:18:16;;;;;;;3.43;1.07;;;9.70;96.10;;;;;;5034589;28;20038;-79
2021/10/13 04:20:42;;;;;;;4.97;1.37;;;9.70;96.10;;;;;;5055205;28;20024;-79
2021/10/13 04:23:08;;;;;;;7.20;1.70;;;9.70;96.10;;;;;;5033440;28;20025;-79
2021/10/13 04:25:33;;;;;;;3.93;1.50;;;9.80;96.10;;;;;;5034075;28;20029;-79
2021/10/13 04:27:59;;;;;;;8.30;1.40;;;9.80;96.00;;;;;;5047488;28;20029;-79
2021/10/13 04:30:25;;;;;;;6.90;1.50;;;9.80;96.00;;;;;;5052262;28;20523;-79
2021/10/13 04:32:50;;;;;;;5.80;1.30;;;9.70;96.00;;;;;;5051800;28;20547;-79
2021/10/13 04:35:16;;;;;;;7.80;1.73;;;9.80;96.00;;;;;;5052253;28;20470;-79
2021/10/13 04:37:41;;;;;;;5.90;1.47;;;9.80;96.00;;;;;;5053253;28;20025;-79
2021/10/13 04:40:08;;;;;;;5.60;1.30;;;9.70;96.00;;;;;;5054013;28;20056;-79
2021/10/13 04:42:34;;;;;;;8.57;1.27;;;9.70;96.00;;;;;;5051864;28;20033;-78
2021/10/13 04:45:00;;;;;;;6.00;1.37;;;9.70;95.90;;;;;;5053204;28;20029;-79
2021/10/13 04:47:25;;;;;;;4.63;1.00;;;9.70;95.90;;;;;;5051961;28;20060;-79
2021/10/13 04:49:51;;;;;;;4.17;1.50;;;9.60;95.90;;;;;;5053525;28;20032;-79
2021/10/13 04:52:18;;;;;;;5.80;1.20;;;9.60;95.90;;;;;;5054266;28;20040;-79
2021/10/13 04:54:44;;;;;;;8.70;1.10;;;9.60;95.90;;;;;;5053788;28;20033;-79
2021/10/13 04:57:09;;;;;;;5.23;1.20;;;9.60;95.90;;;;;;5053391;28;20052;-79
2021/10/13 04:59:35;;;;;;;9.63;1.53;;;9.50;95.90;;;;;;5052453;28;20083;-79
2021/10/13 05:02:01;;;;;;;6.90;1.77;;;9.40;95.90;;;;;;5035197;28;20028;-78
2021/10/13 05:04:27;;;;;;;7.53;1.40;;;9.40;95.90;;;;;;5053803;28;20025;-80
2021/10/13 05:06:52;;;;;;;8.87;1.57;;;9.40;95.90;;;;;;5053918;28;20033;-80
2021/10/13 05:09:18;;;;;;;6.03;1.60;;;9.40;95.90;;;;;;5052408;28;20030;-79
2021/10/13 05:11:44;;;;;;;9.37;2.20;;;9.30;95.90;;;;;;5052112;28;20435;-79
2021/10/13 05:14:11;;;;;;;12.70;1.30;;;9.30;95.90;;;;;;5052012;28;20048;-79
2021/10/13 05:16:39;;;;;;;8.53;1.60;;;9.20;95.90;;;;;;5052830;28;20037;-79
2021/10/13 05:19:05;;;;;;;4.97;1.60;;;9.20;95.80;;;;;;5053682;28;20032;-78
2021/10/13 05:21:30;;;;;;;7.23;1.57;;;9.20;95.90;;;;;;5052223;28;20033;-79
2021/10/13 05:23:56;;;;;;;16.77;1.97;;;9.10;95.80;;;;;;5035520;28;20052;-79
2021/10/13 05:26:22;;;;;;;10.93;1.47;;;9.10;95.90;;;;;;5052076;28;20376;-79
2021/10/13 05:28:47;;;;;;;7.30;1.63;;;9.10;95.80;;;;;;5053070;28;20099;-79
2021/10/13 05:31:13;;;;;;;5.37;1.40;;;9.00;95.90;;;;;;5053031;28;20490;-79
2021/10/13 05:33:39;;;;;;;9.63;1.73;;;9.00;95.90;;;;;;5035041;28;20049;-78
2021/10/13 05:36:05;;;;;;;9.00;1.80;;;8.90;95.90;;;;;;5051937;28;20078;-79
2021/10/13 05:38:30;;;;;;;5.83;1.67;;;8.90;95.90;;;;;;5035043;28;20078;-79
2021/10/13 05:40:56;;;;;;;11.33;1.97;;;8.90;95.90;;;;;;5035420;28;20052;-79
2021/10/13 05:43:22;;;;;;;8.47;2.60;;;8.70;95.90;;;;;;5052970;28;20029;-79
2021/10/13 05:45:48;;;;;;;7.57;1.93;;;8.80;95.90;;;;;;5053230;28;20063;-80
2021/10/13 05:48:14;;;;;;;8.70;2.00;;;8.80;96.00;;;;;;5051816;28;20477;-79
2021/10/13 05:50:40;;;;;;;9.27;2.57;;;8.80;96.10;;;;;;5051839;28;20380;-79
2021/10/13 05:53:06;;;;;;;7.80;1.90;;;8.80;96.20;;;;;;5051793;28;20037;-80
2021/10/13 05:55:32;;;;;;;10.03;2.00;;;8.80;96.30;;;;;;5051691;28;20048;-79
2021/10/13 05:58:01;;;;;;;9.40;1.67;;;8.80;96.40;;;;;;5051072;28;20064;-79
2021/10/13 06:00:28;;;;;;;8.97;1.70;;;8.80;96.50;;;;;;5052583;28;20037;-78
2021/10/13 06:02:53;;;;;;;7.77;1.50;;;8.80;96.50;;;;;;5052807;28;20032;-79
2021/10/13 06:05:19;;;;;;;5.23;1.40;;;8.80;96.50;;;;;;5045535;28;20107;-79
2021/10/13 06:07:45;;;;;;;4.67;1.43;;;8.90;96.60;;;;;;5042563;28;20369;-78
2021/10/13 06:10:10;;;;;;;8.83;1.50;;;8.90;96.60;;;;;;5032357;28;20025;-78
2021/10/13 06:12:36;;;;;;;10.80;1.50;;;9.00;96.60;;;;;;5029888;28;20523;-79
2021/10/13 06:15:03;;;;;;;9.93;1.40;;;9.00;96.60;;;;;;5051006;28;20029;-78
2021/10/13 06:17:31;;;;;;;6.70;1.50;;;9.00;96.70;;;;;;5050692;28;20029;-78
2021/10/13 06:19:56;;;;;;;13.00;1.67;;;9.10;96.70;;;;;;5049037;28;20426;-78
2021/10/13 06:22:22;;;;;;;9.33;1.20;;;9.10;96.70;;;;;;5031666;28;20029;-79
2021/10/13 06:24:48;;;;;;;8.27;1.30;;;9.10;96.70;;;;;;5048937;28;20036;-78
2021/10/13 06:27:13;;;;;;;4.20;1.00;;;9.20;96.70;;;;;;5048193;28;20482;-78
2021/10/13 06:29:39;;;;;;;8.07;1.83;;;9.30;96.70;;;;;;5052139;28;20051;-78
2021/10/13 06:32:05;;;;;;;11.20;1.83;;;9.30;96.70;;;;;;5033840;28;20052;-78
2021/10/13 06:34:30;;;;;;;5.60;1.20;;;9.30;96.70;;;;;;5051838;28;20133;-78
2021/10/13 06:36:56;;;;;;;7.77;1.37;;;9.40;96.80;;;;;;5050736;28;20025;-78
2021/10/13 06:39:21;;;;;;;7.30;1.80;;;9.40;96.80;;;;;;5050710;28;20483;-78
2021/10/13 06:41:48;;;;;;;7.47;1.70;;;9.50;96.80;;;;;;5049912;28;20036;-78
2021/10/13 06:44:14;;;;;;;9.23;1.60;;;9.50;96.80;;;;;;5033347;28;20381;-78
2021/10/13 06:46:40;;;;;;;6.30;1.20;;;9.60;96.80;;;;;;5050672;28;20013;-78
2021/10/13 06:49:06;;;;;;;6.83;1.33;;;9.60;96.70;;;;;;5052393;28;20029;-79
2021/10/13 06:51:32;;;;;;;17.47;2.10;;;9.70;96.80;;;;;;5050480;28;20048;-79
2021/10/13 06:53:57;;;;;;;4.47;1.20;;;9.70;96.70;;;;;;5050296;28;20119;-79
2021/10/13 06:56:23;;;;;;;10.70;1.50;;;9.70;96.70;;;;;;5049015;28;20370;-79
2021/10/13 06:58:49;;;;;;;10.27;1.87;;;9.70;96.60;;;;;;5033763;28;20149;-78
2021/10/13 07:01:14;;;;;;;5.83;1.93;;;9.80;96.70;;;;;;5047233;28;20035;-79
2021/10/13 07:03:40;;;;;;;5.93;1.43;;;9.80;96.60;;;;;;5034916;28;20091;-79
2021/10/13 07:06:06;;;;;;;7.50;1.40;;;9.90;96.60;;;;;;5030941;28;20072;-79
2021/10/13 07:08:31;;;;;;;7.63;2.07;;;9.90;96.50;;;;;;5014748;28;20025;-78
2021/10/13 07:10:57;;;;;;;4.13;1.50;;;9.90;96.50;;;;;;5035107;28;20113;-78
2021/10/13 07:13:22;;;;;;;6.23;1.60;;;9.90;96.40;;;;;;5035878;28;20087;-78
2021/10/13 07:15:48;;;;;;;6.20;1.83;;;9.90;96.40;;;;;;5035614;28;20457;-79
2021/10/13 07:18:14;;;;;;;7.63;1.73;;;10.00;96.40;;;;;;5034519;28;20466;-79
2021/10/13 07:20:39;;;;;;;9.93;2.17;;;10.10;96.40;;;;;;5034203;28;20045;-79
2021/10/13 07:23:06;;;;;;;9.67;2.30;;;10.10;96.30;;;;;;5035155;28;20040;-78
2021/10/13 07:25:35;;;;;;;9.17;1.60;;;10.10;96.30;;;;;;5034113;28;20482;-79
2021/10/13 07:28:02;;;;;;;15.37;2.90;;;10.20;96.30;;;;;;5034569;28;20433;-79
2021/10/13 07:30:30;;;;;;;9.00;2.03;;;10.20;96.30;;;;;;5034759;28;20390;-79
2021/10/13 07:32:55;;;;;;;5.63;1.30;;;10.30;96.30;;;;;;5047351;28;20576;-79
2021/10/13 07:35:22;;;;;;;6.27;2.33;;;10.40;96.20;;;;;;5055657;28;20052;-79
2021/10/13 07:37:48;;;;;;;11.10;2.10;;;10.40;96.20;;;;;;5054141;28;20029;-79
2021/10/13 07:40:14;;;;;;;6.93;1.83;;;10.50;96.20;;;;;;5054117;28;20021;-79
2021/10/13 07:42:41;;;;;;;13.47;1.77;;;10.60;96.10;;;;;;5051103;28;20040;-79
2021/10/13 07:45:07;;;;;;;8.93;1.73;;;10.60;96.00;;;;;;5055028;28;20121;-78
2021/10/13 07:47:33;;;;;;;6.40;1.77;;;10.60;95.90;;;;;;5053936;28;20025;-78
2021/10/13 07:49:58;;;;;;;5.93;1.90;;;10.70;95.90;;;;;;5055202;28;20033;-79
2021/10/13 07:52:24;;;;;;;9.40;2.63;;;10.70;95.80;;;;;;5042199;28;20033;-79
2021/10/13 07:54:50;;;;;;;9.67;2.17;;;10.70;95.80;;;;;;5033581;28;20091;-78
2021/10/13 07:57:16;;;;;;;7.63;1.77;;;10.80;95.80;;;;;;5033499;28;20100;-78
2021/10/13 07:59:41;;;;;;;7.80;2.17;;;10.90;95.80;;;;;;5032416;28;20473;-79
2021/10/13 08:02:07;;;;;;;10.73;2.40;;;11.00;95.80;;;;;;5034654;28;20436;-78
2021/10/13 08:04:32;;;;;;;5.77;1.97;;;11.00;95.80;;;;;;5034922;28;20032;-79
2021/10/13 08:06:58;;;;;;;5.85;1.52;;;11.10;95.80;;;;;;5017040;28;20033;-79
2021/10/13 08:09:24;;;;;;;8.03;2.17;;;11.10;95.70;;;;;;5016631;28;20044;-79
2021/10/13 08:11:50;;;;;;;5.50;1.73;;;11.20;95.70;;;;;;5033268;28;20449;-79
2021/10/13 08:14:17;;;;;;;10.18;2.00;;;11.30;95.70;;;;;;5033581;28;20041;-79
2021/10/13 08:16:43;;;;;;;6.82;1.70;;;11.30;95.60;;;;;;5034627;28;20026;-79
2021/10/13 08:19:09;;;;;;;6.28;1.88;;;11.40;95.50;;;;;;5033573;28;20065;-78
2021/10/13 08:21:35;;;;;;;9.15;2.00;;;11.50;95.50;;;;;;5016142;28;20394;-79
2021/10/13 08:24:00;;;;;;;6.90;1.42;;;11.50;95.40;;;;;;5034418;28;20033;-79
2021/10/13 08:26:26;;;;;;;7.00;2.00;;;11.50;95.30;;;;;;5016694;28;20025;-79
2021/10/13 08:28:52;;;;;;;9.55;1.85;;;11.60;95.30;;;;;;5034642;28;20041;-79
2021/10/13 08:31:17;;;;;;;7.03;1.33;;;11.70;95.20;;;;;;5016882;28;20111;-79
2021/10/13 08:33:43;;;;;;;14.00;1.77;;;11.70;95.10;;;;;;5032515;28;20513;-78
2021/10/13 08:36:09;;;;;;;32.40;1.90;;;11.70;95.10;;;;;;5032972;28;20113;-79
2021/10/13 08:38:36;;;;;;;26.25;2.35;;;11.80;94.90;;;;;;5032590;28;20563;-79
2021/10/13 08:41:03;;;;;;;15.38;1.90;;;11.80;94.90;;;;;;5033182;28;20029;-79
2021/10/13 08:43:29;;;;;;;8.27;1.35;;;11.90;94.90;;;;;;5034044;28;20052;-79
2021/10/13 08:45:55;;;;;;;6.40;1.65;;;11.90;94.80;;;;;;5016406;28;20466;-78
2021/10/13 08:48:20;;;;;;;10.02;2.05;;;12.10;94.80;;;;;;5034091;28;20428;-79
2021/10/13 08:50:49;;;;;;;6.15;1.48;;;12.10;94.70;;;;;;5034177;28;20355;-79
2021/10/13 08:53:20;;;;;;;6.75;1.30;;;12.30;94.80;;;;;;5016402;28;20429;-79
2021/10/13 08:55:47;;;;;;;7.32;1.10;;;12.50;94.70;;;;;;5033750;28;20355;-79
2021/10/13 08:58:12;;;;;;;7.80;1.60;;;12.60;94.40;;;;;;5032872;28;20467;-79
2021/10/13 09:00:40;;;;;;;7.47;1.17;;;12.70;94.30;;;;;;5033848;28;20055;-78
2021/10/13 09:03:06;;;;;;;6.78;1.70;;;12.70;93.90;;;;;;5032020;28;20021;-79
2021/10/13 09:05:32;;;;;;;6.70;1.45;;;12.80;93.70;;;;;;5033404;28;20108;-79
2021/10/13 09:07:59;;;;;;;5.40;1.00;;;12.80;93.50;;;;;;5033494;28;20029;-80
2021/10/13 09:10:30;;;;;;;4.13;1.10;;;12.90;93.30;;;;;;5033740;28;20052;-80
2021/10/13 09:13:00;;;;;;;4.97;1.42;;;13.00;93.30;;;;;;5033607;28;20084;-79
2021/10/13 09:15:28;;;;;;;7.55;1.48;;;13.00;93.10;;;;;;5032388;28;20026;-79
2021/10/13 09:18:05;;;;;;;4.72;1.10;;;13.10;92.90;;;;;;5032285;28;20033;-79
2021/10/13 09:20:34;;;;;;;11.20;1.13;;;13.10;92.90;;;;;;5033732;28;20048;-79
2021/10/13 09:23:26;;;;;;;9.70;1.15;;;13.20;92.80;;;;;;5033206;28;20021;-79
2021/10/13 09:26:11;;;;;;;8.30;1.50;;;13.30;92.80;;;;;;5033516;28;20033;-79
2021/10/13 09:28:38;;;;;;;2.97;0.90;;;13.40;93.00;;;;;;5033203;28;20382;-79
2021/10/13 09:31:11;;;;;;;5.05;1.08;;;13.40;92.50;;;;;;5031858;28;20022;-79
2021/10/13 09:33:37;;;;;;;9.68;1.20;;;13.60;92.50;;;;;;5032212;28;20485;-80
2021/10/13 09:36:12;;;;;;;3.58;1.08;;;13.70;92.10;;;;;;5033364;28;20040;-80
2021/10/13 09:38:43;;;;;;;4.50;0.80;;;13.90;92.00;;;;;;5033333;28;20453;-79
2021/10/13 09:41:08;;;;;;;4.43;1.15;;;14.10;91.50;;;;;;5032938;28;20029;-80
2021/10/13 09:43:38;;;;;;;4.15;0.68;;;14.30;91.20;;;;;;5033194;28;20034;-80
2021/10/13 09:46:05;;;;;;;4.68;0.60;;;14.40;90.70;;;;;;5031697;28;20385;-80
2021/10/13 09:48:32;;;;;;;7.68;1.13;;;14.60;90.10;;;;;;5031773;28;20057;-80
2021/10/13 09:51:21;;;;;;;2.40;0.65;;;14.60;88.20;;;;;;5032237;28;20485;-79
2021/10/13 09:53:49;;;;;;;5.55;0.80;;;14.80;87.70;;;;;;5031664;28;20039;-80
2021/10/13 09:56:34;;;;;;;7.82;0.68;;;15.00;86.60;;;;;;5031727;28;20416;-80
2021/10/13 09:59:07;;;;;;;3.63;0.60;;;15.50;86.90;;;;;;5033037;28;20108;-80
2021/10/13 10:01:33;;;;;;;3.15;0.63;;;15.90;85.80;;;;;;5033060;28;20033;-77
2021/10/13 10:03:59;;;;;;;2.92;0.50;;;16.40;84.70;;;;;;5030891;28;20026;-77
2021/10/13 10:06:27;;;;;;;4.78;0.60;;;16.80;83.10;;;;;;5032785;28;20044;-80
2021/10/13 10:08:56;;;;;;;4.68;0.60;;;16.90;80.70;;;;;;5032727;28;20083;-80
2021/10/13 10:11:36;;;;;;;4.57;0.70;;;16.90;77.80;;;;;;5032567;28;20489;-80
2021/10/13 10:14:04;;;;;;;4.95;0.63;;;16.90;76.80;;;;;;5032626;28;20037;-80
2021/10/13 10:16:39;;;;;;;3.47;0.70;;;16.80;76.60;;;;;;5032410;28;20418;-80
2021/10/13 10:19:21;;;;;;;3.45;0.50;;;16.80;77.10;;;;;;5031121;28;20049;-80
2021/10/13 10:21:52;;;;;;;4.40;0.60;;;16.80;75.30;;;;;;5035172;28;20037;-80
2021/10/13 10:24:32;;;;;;;2.85;0.50;;;16.90;73.70;;;;;;5032438;28;20041;-79
2021/10/13 10:27:18;;;;;;;4.28;0.60;;;16.80;73.70;;;;;;5045519;28;20067;-80
2021/10/13 10:29:44;;;;;;;5.07;0.80;;;16.90;73.50;;;;;;5052312;28;20033;-79
2021/10/13 10:32:15;;;;;;;3.38;0.70;;;16.90;73.60;;;;;;5041836;28;20535;-80
2021/10/13 10:35:04;;;;;;;3.53;0.65;;;17.00;73.30;;;;;;5040846;28;20041;-79
2021/10/13 10:37:48;;;;;;;2.58;0.45;;;17.10;71.50;;;;;;5040450;28;20025;-79
2021/10/13 10:40:20;;;;;;;3.63;0.50;;;17.20;71.20;;;;;;5041249;28;20033;-80
2021/10/13 10:42:51;;;;;;;3.50;0.70;;;17.30;71.00;;;;;;5041438;28;20473;-78
2021/10/13 10:45:23;;;;;;;2.97;0.50;;;17.50;71.00;;;;;;5042343;28;20017;-78
2021/10/13 10:47:54;;;;;;;4.38;0.60;;;17.70;70.90;;;;;;5044483;28;20036;-78
2021/10/13 10:50:37;;;;;;;3.30;0.50;;;17.90;70.00;;;;;;5044916;28;20095;-78
2021/10/13 10:53:29;;;;;;;2.15;0.50;;;18.00;69.00;;;;;;5051195;28;20393;-78
2021/10/13 10:56:16;;;;;;;3.97;0.47;;;18.00;67.60;;;;;;5052543;28;20029;-77
2021/10/13 10:58:57;;;;;;;2.90;0.50;;;18.00;66.80;;;;;;5055762;28;20081;-77
2021/10/13 11:01:22;;;;;;;3.97;0.50;;;17.90;66.20;;;;;;5055941;28;20029;-78
2021/10/13 11:03:48;;;;;;;5.82;0.60;;;17.80;65.50;;;;;;5054434;28;20032;-78
2021/10/13 11:06:15;;;;;;;3.50;0.40;;;17.80;64.80;;;;;;5054473;28;20031;-77
2021/10/13 11:09:01;;;;;;;3.75;0.50;;;17.80;64.30;;;;;;5044857;28;20056;-78
2021/10/13 11:11:30;;;;;;;2.72;0.40;;;17.80;64.30;;;;;;5046101;28;20028;-78
2021/10/13 11:14:02;;;;;;;3.75;0.52;;;17.90;64.40;;;;;;5035599;28;20037;-78
2021/10/13 11:16:28;;;;;;;3.92;0.55;;;18.00;64.50;;;;;;5035709;28;20034;-77
2021/10/13 11:19:04;;;;;;;3.25;0.60;;;18.20;64.80;;;;;;5034405;28;20025;-77
2021/10/13 11:21:30;;;;;;;4.15;0.75;;;18.70;64.60;;;;;;5035569;28;20105;-78
2021/10/13 11:23:58;;;;;;;4.10;0.85;;;19.30;64.90;;;;;;5034671;28;20164;-78
2021/10/13 11:26:28;;;;;;;3.38;0.50;;;20.00;64.50;;;;;;5034034;28;20022;-78
2021/10/13 11:28:53;;;;;;;2.53;0.43;;;20.80;63.80;;;;;;5035433;28;20477;-78
2021/10/13 11:31:19;;;;;;;3.83;0.45;;;21.40;62.50;;;;;;5035580;28;20037;-78
2021/10/13 11:33:45;;;;;;;3.17;0.60;;;22.00;59.40;;;;;;5035015;28;20134;-78
2021/10/13 11:36:12;;;;;;;1.73;0.32;;;22.30;57.70;;;;;;5034101;28;20025;-78
2021/10/13 11:38:40;;;;;;;4.95;0.50;;;22.10;53.90;;;;;;5036298;28;20037;-78
2021/10/13 11:41:13;;;;;;;1.75;0.40;;;21.70;53.20;;;;;;5035131;28;20100;-78
2021/10/13 11:43:42;;;;;;;1.80;0.50;;;21.30;53.30;;;;;;5034249;28;20048;-78
2021/10/13 11:46:15;;;;;;;3.03;0.47;;;20.80;53.00;;;;;;5035238;28;20032;-77
2021/10/13 11:48:40;;;;;;;3.30;0.40;;;20.30;53.70;;;;;;5033941;28;20036;-78
2021/10/13 11:51:14;;;;;;;2.78;0.40;;;19.80;54.50;;;;;;5035359;28;20025;-78
2021/10/13 11:53:41;;;;;;;3.38;0.50;;;19.50;55.20;;;;;;5034808;28;20041;-78
2021/10/13 11:56:12;;;;;;;6.18;0.70;;;19.10;55.50;;;;;;5016594;28;20022;-78
2021/10/13 11:58:39;;;;;;;3.53;0.50;;;18.80;56.30;;;;;;5034927;28;20045;-77
2021/10/13 12:01:05;;;;;;;3.85;0.40;;;18.50;57.20;;;;;;5033824;28;20075;-78
2021/10/13 12:03:32;;;;;;;5.78;0.77;;;18.10;57.90;;;;;;5033364;28;20092;-78
2021/10/13 12:05:58;;;;;;;3.15;0.50;;;17.80;58.20;;;;;;5034401;28;20037;-78
2021/10/13 12:08:42;;;;;;;5.20;0.60;;;17.60;59.20;;;;;;5034724;28;20033;-77
2021/10/13 12:11:18;;;;;;;3.75;0.50;;;17.30;60.30;;;;;;5036657;28;20171;-77
2021/10/13 12:13:49;;;;;;;3.78;0.60;;;17.20;61.00;;;;;;5034397;28;20060;-79
2021/10/13 12:16:23;;;;;;;2.90;0.40;;;17.40;61.90;;;;;;5068577;28;20420;-79
2021/10/13 12:18:50;;;;;;;4.85;0.50;;;17.70;61.90;;;;;;5053461;28;20057;-79
2021/10/13 12:21:21;;;;;;;3.85;0.40;;;18.00;61.70;;;;;;5050306;28;20095;-79
2021/10/13 12:23:56;;;;;;;3.17;0.55;;;18.20;61.40;;;;;;5051700;28;20053;-78
2021/10/13 12:26:25;;;;;;;3.00;0.57;;;18.40;61.50;;;;;;5051857;28;20027;-79
2021/10/13 12:28:54;;;;;;;3.97;0.55;;;18.60;61.30;;;;;;5061361;28;20124;-78
2021/10/13 12:31:30;;;;;;;2.72;0.50;;;18.80;61.10;;;;;;5053699;28;20029;-79
2021/10/13 12:34:05;;;;;;;3.75;0.60;;;18.80;61.00;;;;;;5038388;28;20050;-78
2021/10/13 12:36:33;;;;;;;6.10;0.68;;;18.80;61.00;;;;;;5053479;28;20025;-79
2021/10/13 12:39:10;;;;;;;4.40;0.57;;;18.90;61.10;;;;;;5041094;28;20100;-78
2021/10/13 12:41:37;;;;;;;4.03;0.50;;;18.80;60.90;;;;;;5040460;28;20107;-79
2021/10/13 12:44:17;;;;;;;5.63;0.70;;;18.70;60.70;;;;;;5037791;28;20032;-79
2021/10/13 12:47:07;;;;;;;2.80;0.40;;;18.70;60.50;;;;;;5040565;28;20108;-80
2021/10/13 12:49:43;;;;;;;5.68;0.50;;;18.70;60.70;;;;;;5038463;28;20034;-78
2021/10/13 12:52:25;;;;;;;3.60;0.50;;;18.80;60.80;;;;;;5041749;28;20017;-79
2021/10/13 12:54:56;;;;;;;2.47;0.43;;;18.80;60.70;;;;;;5052275;28;20047;-79
2021/10/13 12:57:27;;;;;;;1.73;0.30;;;18.90;60.80;;;;;;5035902;28;20374;-79
2021/10/13 12:59:53;;;;;;;4.05;0.60;;;19.20;60.80;;;;;;5045093;28;20045;-79